createdAt,value
2023-03-16T00:01:24.256Z,-2.27
2023-03-16T00:06:52.927Z,-2.4
2023-03-16T00:12:03.380Z,-2.46
2023-03-16T00:17:22.797Z,-2.32
2023-03-16T00:22:42.061Z,-2.2
2023-03-16T00:28:01.432Z,-2.36
2023-03-16T00:33:20.516Z,-2.44
2023-03-16T00:38:39.929Z,-2.51
2023-03-16T00:44:00.003Z,-2.51
2023-03-16T00:49:19.814Z,-2.65
2023-03-16T00:54:38.467Z,-2.77
2023-03-16T00:59:57.755Z,-2.79
2023-03-16T01:05:17.039Z,-2.72
2023-03-16T01:10:36.591Z,-2.74
2023-03-16T01:15:56.006Z,-2.79
2023-03-16T01:21:15.802Z,-2.74
2023-03-16T01:26:34.861Z,-2.91
2023-03-16T01:31:53.732Z,-3.08
2023-03-16T01:37:13.374Z,-3.29
2023-03-16T01:42:32.605Z,-3.17
2023-03-16T01:47:51.871Z,-3.27
2023-03-16T01:53:11.196Z,-3.53
2023-03-16T01:58:30.591Z,-3.58
2023-03-16T02:03:50.046Z,-3.44
2023-03-16T02:09:08.871Z,-3.47
2023-03-16T02:14:28.585Z,-3.5
2023-03-16T02:19:48.442Z,-3.5
2023-03-16T02:25:07.836Z,-3.51
2023-03-16T02:30:27.388Z,-3.54
2023-03-16T02:35:46.156Z,-3.63
2023-03-16T02:41:05.495Z,-3.77
2023-03-16T02:46:24.555Z,-3.88
2023-03-16T02:51:44.302Z,-3.98
2023-03-16T02:57:03.664Z,-3.98
2023-03-16T03:02:23.325Z,-3.98
2023-03-16T03:07:42.308Z,-3.99
2023-03-16T03:13:01.586Z,-3.87
2023-03-16T03:18:21.180Z,-3.84
2023-03-16T03:23:40.933Z,-3.81
2023-03-16T03:29:00.438Z,-3.88
2023-03-16T03:34:19.555Z,-3.94
2023-03-16T03:39:38.776Z,-3.98
2023-03-16T03:44:58.302Z,-4.01
2023-03-16T03:50:17.512Z,-3.97
2023-03-16T03:55:36.398Z,-3.95
2023-03-16T04:00:55.947Z,-3.94
2023-03-16T04:06:15.017Z,-3.92
2023-03-16T04:11:34.961Z,-3.92
2023-03-16T04:16:54.259Z,-3.98
2023-03-16T04:22:13.561Z,-4.05
2023-03-16T04:27:32.616Z,-4.08
2023-03-16T04:32:52.462Z,-4.09
2023-03-16T04:38:12.056Z,-4.13
2023-03-16T04:43:31.521Z,-4.21
2023-03-16T04:48:50.704Z,-4.26
2023-03-16T04:54:09.877Z,-4.26
2023-03-16T04:59:28.956Z,-4.28
2023-03-16T05:04:48.162Z,-4.3
2023-03-16T05:10:07.274Z,-4.3
2023-03-16T05:15:27.013Z,-4.33
2023-03-16T05:20:46.493Z,-4.39
2023-03-16T05:26:05.213Z,-4.46
2023-03-16T05:31:24.906Z,-4.54
2023-03-16T05:36:44.012Z,-4.61
2023-03-16T05:42:03.680Z,-4.66
2023-03-16T05:47:23.045Z,-4.64
2023-03-16T05:52:42.466Z,-4.66
2023-03-16T05:58:03.793Z,-4.67
2023-03-16T06:03:21.095Z,-4.66
2023-03-16T06:08:40.488Z,-4.66
2023-03-16T06:13:59.667Z,-4.57
2023-03-16T06:19:19.247Z,-4.63
2023-03-16T06:24:38.391Z,-4.6
2023-03-16T06:29:57.722Z,-4.48
2023-03-16T06:35:17.608Z,-4.4
2023-03-16T06:40:37.346Z,-4.23
2023-03-16T06:45:57.199Z,-3.98
2023-03-16T06:51:16.960Z,-3.75
2023-03-16T06:56:35.411Z,-3.63
2023-03-16T06:57:00.041Z,-3.44
2023-03-16T07:02:18.918Z,-3.53
2023-03-16T07:07:38.417Z,-3.15
2023-03-16T07:12:57.688Z,-2.89
2023-03-16T07:18:17.420Z,-2.68
2023-03-16T07:23:36.691Z,-2.4
2023-03-16T07:28:57.963Z,-2.02
2023-03-16T07:34:14.620Z,-1.51
2023-03-16T07:39:34.365Z,-1.27
2023-03-16T07:44:53.812Z,-0.99
2023-03-16T07:50:13.428Z,-0.46
2023-03-16T07:55:32.595Z,-0.11
2023-03-16T08:00:52.029Z,0.41
2023-03-16T08:06:11.060Z,1.09
2023-03-16T08:11:30.017Z,1.51
2023-03-16T08:16:48.882Z,1.81
2023-03-16T08:22:07.837Z,2.26
2023-03-16T08:27:27.728Z,3.04
2023-03-16T08:32:46.907Z,3.4
2023-03-16T08:38:06.496Z,3.79
2023-03-16T08:43:25.983Z,4.07
2023-03-16T08:48:45.684Z,4.54
2023-03-16T08:54:04.638Z,4.85
2023-03-16T08:59:30.011Z,5.07
2023-03-16T09:04:43.759Z,5.3
2023-03-16T09:10:02.517Z,5.52
2023-03-16T09:15:22.098Z,5.65
2023-03-16T09:20:41.442Z,5.78
2023-03-16T09:26:00.655Z,5.92
2023-03-16T09:31:19.616Z,6.49
2023-03-16T09:36:38.336Z,6.64
2023-03-16T09:41:57.211Z,6.67
2023-03-16T09:47:17.410Z,6.78
2023-03-16T09:52:36.207Z,6.88
2023-03-16T09:57:55.768Z,6.97
2023-03-16T10:03:15.043Z,6.98
2023-03-16T10:08:34.652Z,7.14
2023-03-16T10:13:53.494Z,7.39
2023-03-16T10:19:12.372Z,7.42
2023-03-16T10:24:31.804Z,7.28
2023-03-16T10:29:51.456Z,7.71
2023-03-16T10:35:10.625Z,7.93
2023-03-16T10:40:30.651Z,8.01
2023-03-16T10:45:48.981Z,8
2023-03-16T10:51:08.167Z,7.79
2023-03-16T10:56:26.240Z,7.84
2023-03-16T11:01:45.438Z,8.18
2023-03-16T11:07:04.793Z,8.75
2023-03-16T11:12:23.825Z,8.31
2023-03-16T11:17:42.873Z,8.56
2023-03-16T11:23:02.213Z,8.93
2023-03-16T11:28:21.475Z,8.93
2023-03-16T11:33:41.524Z,9
2023-03-16T11:39:00.020Z,9.01
2023-03-16T11:44:19.622Z,9.22
2023-03-16T11:49:38.485Z,8.91
2023-03-16T11:54:57.786Z,8.85
2023-03-16T12:00:17.125Z,8.7
2023-03-16T12:05:36.459Z,8.68
2023-03-16T12:10:55.534Z,8.89
2023-03-16T12:16:15.118Z,9.03
2023-03-16T12:21:34.433Z,9.39
2023-03-16T12:26:53.483Z,9.68
2023-03-16T12:32:12.522Z,9.85
2023-03-16T12:37:31.279Z,9.81
2023-03-16T12:42:50.466Z,9.92
2023-03-16T12:48:10.200Z,9.78
2023-03-16T12:53:28.969Z,9.64
2023-03-16T12:58:47.983Z,9.91
2023-03-16T13:04:07.609Z,10.22
2023-03-16T13:09:25.721Z,10.03
2023-03-16T13:14:45.017Z,9.88
2023-03-16T13:20:03.769Z,10.1
2023-03-16T13:25:23.231Z,10.44
2023-03-16T13:30:42.654Z,10.75
2023-03-16T13:36:01.336Z,10.72
2023-03-16T13:41:19.984Z,10.63
2023-03-16T13:46:39.568Z,10.63
2023-03-16T13:51:58.575Z,10.37
2023-03-16T13:57:17.567Z,10.24
2023-03-16T14:02:36.583Z,10.8
2023-03-16T14:07:55.303Z,11.01
2023-03-16T14:13:14.970Z,11.25
2023-03-16T14:18:34.111Z,11.26
2023-03-16T14:23:52.877Z,11.12
2023-03-16T14:29:12.275Z,10.84
2023-03-16T14:34:31.249Z,10.77
2023-03-16T14:39:50.245Z,10.37
2023-03-16T14:45:09.936Z,10.24
2023-03-16T14:50:29.247Z,10.39
2023-03-16T14:55:48.565Z,10.3
2023-03-16T15:01:07.338Z,10.34
2023-03-16T15:06:26.225Z,10.44
2023-03-16T15:11:45.668Z,10.29
2023-03-16T15:17:04.885Z,10.26
2023-03-16T15:22:23.969Z,10.37
2023-03-16T15:27:43.044Z,10.1
2023-03-16T15:33:02.601Z,9.82
2023-03-16T15:38:21.842Z,9.64
2023-03-16T15:43:40.705Z,9.45
2023-03-16T15:49:00.132Z,9.31
2023-03-16T15:54:20.353Z,9.22
2023-03-16T15:59:38.369Z,9.17
2023-03-16T16:04:57.282Z,9.09
2023-03-16T16:10:16.469Z,9
2023-03-16T16:15:35.599Z,8.96
2023-03-16T16:20:55.085Z,8.96
2023-03-16T16:26:14.456Z,8.93
2023-03-16T16:31:33.286Z,8.93
2023-03-16T16:36:52.347Z,8.89
2023-03-16T16:42:11.334Z,8.87
2023-03-16T16:47:30.660Z,8.76
2023-03-16T16:52:50.163Z,8.59
2023-03-16T16:58:15.310Z,8.49
2023-03-16T17:03:28.385Z,8.37
2023-03-16T17:08:47.689Z,8.2
2023-03-16T17:14:06.973Z,8.04
2023-03-16T17:19:26.568Z,7.93
2023-03-16T17:24:45.677Z,7.87
2023-03-16T17:30:04.751Z,7.87
2023-03-16T17:35:24.445Z,7.79
2023-03-16T17:40:43.839Z,7.76
2023-03-16T17:46:03.531Z,7.73
2023-03-16T17:51:23.055Z,7.67
2023-03-16T17:56:42.239Z,7.59
2023-03-16T18:02:01.656Z,7.58
2023-03-16T18:07:20.438Z,7.48
2023-03-16T18:12:39.522Z,7.4
2023-03-16T18:17:59.166Z,7.33
2023-03-16T18:23:18.938Z,7.21
2023-03-16T18:28:38.245Z,7.15
2023-03-16T18:33:57.224Z,7.08
2023-03-16T18:39:16.568Z,7.09
2023-03-16T18:44:35.258Z,6.99
2023-03-16T18:49:54.512Z,6.87
2023-03-16T18:55:13.823Z,6.92
2023-03-16T19:00:33.192Z,6.87
2023-03-16T19:05:52.542Z,6.77
2023-03-16T19:11:11.744Z,6.71
2023-03-16T19:16:30.651Z,6.66
2023-03-16T19:21:50.153Z,6.66
2023-03-16T19:27:08.983Z,6.61
2023-03-16T19:32:28.403Z,6.49
2023-03-16T19:37:55.346Z,6.61
2023-03-16T19:43:06.654Z,6.61
2023-03-16T19:48:25.895Z,6.58
2023-03-16T19:53:45.089Z,6.6
2023-03-16T19:59:04.365Z,6.57
2023-03-16T20:04:23.892Z,6.57
2023-03-16T20:09:43.421Z,6.61
2023-03-16T20:15:02.483Z,6.61
2023-03-16T20:20:22.049Z,6.61
2023-03-16T20:25:40.908Z,6.63
2023-03-16T20:31:00.582Z,6.57
2023-03-16T20:36:20.243Z,6.56
2023-03-16T20:41:39.166Z,6.56
2023-03-16T20:46:58.513Z,6.5
2023-03-16T20:52:17.653Z,6.49
2023-03-16T20:57:36.970Z,6.54
2023-03-16T21:02:55.894Z,6.54
2023-03-16T21:08:14.996Z,6.58
2023-03-16T21:13:33.726Z,6.56
2023-03-16T21:18:52.615Z,6.54
2023-03-16T21:24:11.691Z,6.47
2023-03-16T21:29:30.783Z,6.43
2023-03-16T21:34:50.166Z,6.41
2023-03-16T21:40:09.146Z,6.41
2023-03-16T21:45:28.098Z,6.49
2023-03-16T21:50:46.990Z,6.5
2023-03-16T21:56:06.269Z,6.5
2023-03-16T22:01:25.301Z,6.49
2023-03-16T22:06:43.889Z,6.33
2023-03-16T22:12:03.577Z,6.29
2023-03-16T22:17:23.197Z,6.3
2023-03-16T22:22:42.774Z,6.33
2023-03-16T22:28:01.632Z,6.25
2023-03-16T22:33:20.951Z,6.2
2023-03-16T22:38:39.807Z,6.18
2023-03-16T22:43:59.418Z,6.08
2023-03-16T22:49:18.320Z,6.12
2023-03-16T22:54:38.002Z,6.09
2023-03-16T22:59:57.163Z,6.08
2023-03-16T23:05:16.149Z,6.06
2023-03-16T23:10:34.912Z,5.99
2023-03-16T23:15:53.959Z,6.01
2023-03-16T23:21:13.000Z,6.09
2023-03-16T23:26:31.898Z,6.08
2023-03-16T23:31:50.854Z,6.03
2023-03-16T23:37:10.089Z,5.95
2023-03-16T23:42:29.583Z,5.95
2023-03-16T23:47:48.627Z,6.01
2023-03-16T23:53:07.635Z,5.97
2023-03-16T23:58:36.199Z,6.01
